Time;durP1;ratioP1;P1;durP2;ratioP2;P2;SDS_P1;SDS_P2;PMS_P1;PMS_P2;Temp;Humidity;BMP_temperature;BMP_pressure;BME280_temperature;BME280_humidity;BME280_pressure;Samples;Min_cycle;Max_cycle;Signal;HPM_P1;HPM_P2
2023/12/09 00:01:27;;;;;;;;;7.33;7.33;;;;;8.10;100.00;101139.97;5030512;28;45681;-76
2023/12/09 00:03:53;;;;;;;;;7.00;4.00;;;;;8.28;100.00;101163.09;5031220;28;45268;-76
2023/12/09 00:06:19;;;;;;;;;6.33;4.00;;;;;8.26;100.00;101164.91;5037543;28;45297;-76
2023/12/09 00:08:45;;;;;;;;;2.00;2.00;;;;;8.25;100.00;101160.53;5036824;28;45450;-76
2023/12/09 00:11:11;;;;;;;;;12.00;6.67;;;;;8.13;100.00;101128.44;5037316;28;45584;-76
2023/12/09 00:13:36;;;;;;;;;6.67;3.00;;;;;8.16;100.00;101149.44;5012040;28;45471;-77
2023/12/09 00:16:01;;;;;;;;;7.00;5.67;;;;;8.20;100.00;101151.06;5023994;28;45470;-76
2023/12/09 00:18:27;;;;;;;;;6.00;4.00;;;;;8.23;100.00;101150.97;5013557;28;45290;-77
2023/12/09 00:20:52;;;;;;;;;2.33;2.00;;;;;8.18;100.00;101145.00;5030806;28;46429;-76
2023/12/09 00:23:17;;;;;;;;;8.00;3.67;;;;;8.21;100.00;101152.81;5030383;28;45846;-76
2023/12/09 00:25:43;;;;;;;;;4.00;2.00;;;;;8.18;100.00;101150.25;5025198;28;45347;-76
2023/12/09 00:28:08;;;;;;;;;8.33;6.33;;;;;8.26;100.00;101166.66;5026006;28;45285;-76
2023/12/09 00:30:34;;;;;;;;;4.00;3.00;;;;;8.12;100.00;101146.03;5025999;28;45378;-76
2023/12/09 00:32:59;;;;;;;;;7.00;4.00;;;;;8.16;100.00;101152.94;5034141;28;45342;-76
2023/12/09 00:35:24;;;;;;;;;7.33;6.00;;;;;8.14;100.00;101153.91;5009676;28;45591;-77
2023/12/09 00:37:50;;;;;;;;;7.67;7.00;;;;;8.10;100.00;101154.91;5040959;28;61266;-77
2023/12/09 00:40:15;;;;;;;;;12.00;7.67;;;;;8.22;100.00;101170.31;5017892;28;45475;-76
2023/12/09 00:42:41;;;;;;;;;7.33;6.33;;;;;8.08;100.00;101148.81;5039136;28;45308;-77
2023/12/09 00:45:06;;;;;;;;;3.67;1.00;;;;;8.07;100.00;101153.22;5034344;28;45273;-76
2023/12/09 00:47:32;;;;;;;;;7.33;4.00;;;;;7.97;100.00;101135.97;5033154;28;45510;-77
2023/12/09 00:49:57;;;;;;;;;8.33;4.00;;;;;8.01;100.00;101152.56;5021982;28;57990;-77
2023/12/09 00:52:22;;;;;;;;;3.33;3.00;;;;;8.07;100.00;101160.25;5035807;28;45345;-76
2023/12/09 00:54:48;;;;;;;;;7.33;5.33;;;;;8.12;100.00;101185.53;5017705;28;45330;-77
2023/12/09 00:57:13;;;;;;;;;9.00;4.00;;;;;8.05;100.00;101165.56;5007172;28;45536;-76
2023/12/09 00:59:38;;;;;;;;;7.67;4.00;;;;;7.87;100.00;101142.44;5038166;28;46166;-76
2023/12/09 01:02:04;;;;;;;;;6.00;6.00;;;;;8.08;100.00;101173.38;5032996;28;45246;-76
2023/12/09 01:04:29;;;;;;;;;10.00;4.67;;;;;8.02;100.00;101156.91;5028545;28;45671;-76
2023/12/09 01:06:56;;;;;;;;;5.33;5.33;;;;;8.01;100.00;101153.44;5032384;28;50843;-76
2023/12/09 01:09:21;;;;;;;;;6.00;6.00;;;;;7.95;100.00;101144.84;5035234;28;45464;-76
2023/12/09 01:11:47;;;;;;;;;7.67;5.67;;;;;7.98;100.00;101145.63;5017136;28;45348;-76
2023/12/09 01:14:12;;;;;;;;;4.33;4.00;;;;;7.88;100.00;101130.16;5027528;28;45552;-76
2023/12/09 01:16:37;;;;;;;;;8.00;4.00;;;;;8.02;100.00;101160.38;5024430;28;49762;-77
2023/12/09 01:19:03;;;;;;;;;5.00;2.00;;;;;8.03;100.00;101161.25;5034768;28;59658;-76
2023/12/09 01:21:28;;;;;;;;;4.67;4.00;;;;;7.92;100.00;101153.69;5031776;28;45384;-77
2023/12/09 01:23:53;;;;;;;;;3.00;3.00;;;;;7.91;100.00;101145.84;5011397;28;56871;-78
2023/12/09 01:26:19;;;;;;;;;8.00;2.67;;;;;7.92;100.00;101150.22;5026502;28;56967;-80
2023/12/09 01:28:44;;;;;;;;;6.00;4.00;;;;;7.90;100.00;101155.50;5034774;28;45664;-79
2023/12/09 01:31:09;;;;;;;;;5.00;4.00;;;;;7.79;100.00;101139.16;5012234;28;45551;-79
2023/12/09 01:33:38;;;;;;;;;3.33;2.33;;;;;7.72;100.00;101127.13;5024578;28;45525;-78
2023/12/09 01:36:07;;;;;;;;;9.67;6.00;;;;;7.75;100.00;101141.06;5034522;28;45680;-79
2023/12/09 01:38:32;;;;;;;;;8.67;5.33;;;;;7.65;100.00;101121.19;5033410;28;45647;-79
2023/12/09 01:40:57;;;;;;;;;6.67;3.00;;;;;7.66;100.00;101130.78;5043057;28;51517;-78
2023/12/09 01:43:23;;;;;;;;;6.00;3.33;;;;;7.71;100.00;101142.06;5010181;28;61833;-79
2023/12/09 01:45:53;;;;;;;;;2.67;2.00;;;;;7.75;100.00;101141.06;5006302;28;45592;-79
2023/12/09 01:48:20;;;;;;;;;11.67;6.00;;;;;7.75;100.00;101135.78;5023839;28;47361;-78
2023/12/09 01:50:45;;;;;;;;;8.33;5.33;;;;;7.76;100.00;101136.63;5024290;28;45318;-78
2023/12/09 01:53:11;;;;;;;;;6.33;6.00;;;;;7.75;100.00;101117.38;5034431;28;45403;-79
2023/12/09 01:55:39;;;;;;;;;7.67;3.67;;;;;7.79;100.00;101120.72;5041540;28;45295;-78
2023/12/09 01:58:04;;;;;;;;;4.00;4.00;;;;;7.86;100.00;101132.81;5047376;28;46289;-79
2023/12/09 02:00:29;;;;;;;;;1.00;1.00;;;;;7.89;100.00;101127.44;5046857;28;45533;-78
2023/12/09 02:02:57;;;;;;;;;8.00;6.00;;;;;7.92;100.00;101126.50;5045397;28;45411;-79
2023/12/09 02:05:23;;;;;;;;;6.00;4.67;;;;;7.85;100.00;101110.03;5041463;28;45384;-79
2023/12/09 02:07:48;;;;;;;;;10.67;8.67;;;;;7.96;100.00;101128.13;5027499;28;46553;-78
2023/12/09 02:10:14;;;;;;;;;5.33;4.67;;;;;7.71;100.00;101067.47;5040321;28;45429;-79
2023/12/09 02:12:52;;;;;;;;;8.67;5.33;;;;;8.02;100.00;101097.19;5026734;28;45313;-79
2023/12/09 02:15:23;;;;;;;;;4.00;4.00;;;;;8.05;100.00;101091.81;5041838;28;45403;-80
2023/12/09 02:18:04;;;;;;;;;9.00;6.00;;;;;8.08;100.00;101094.34;5032335;28;45501;-79
2023/12/09 02:20:30;;;;;;;;;6.00;3.00;;;;;8.03;100.00;101079.59;5020833;28;45276;-79
2023/12/09 02:23:09;;;;;;;;;11.00;3.33;;;;;8.02;100.00;101069.97;5038661;28;45782;-79
2023/12/09 02:25:37;;;;;;;;;8.33;3.67;;;;;8.16;100.00;101092.34;5038635;28;45420;-78
2023/12/09 02:28:12;;;;;;;;;9.00;7.33;;;;;8.09;100.00;101066.22;5037108;28;45348;-79
2023/12/09 02:30:59;;;;;;;;;8.00;6.00;;;;;8.15;100.00;101061.63;5043574;28;45268;-79
2023/12/09 02:33:29;;;;;;;;;6.67;4.67;;;;;8.17;100.00;101048.41;5042951;28;45493;-79
2023/12/09 02:35:56;;;;;;;;;10.00;6.67;;;;;8.19;100.00;101046.59;5024166;28;45218;-78
2023/12/09 02:38:23;;;;;;;;;6.00;6.00;;;;;8.06;100.00;101035.59;5020000;28;46395;-79
2023/12/09 02:40:50;;;;;;;;;6.33;5.00;;;;;8.17;100.00;101056.31;5039929;28;45379;-78
2023/12/09 02:43:16;;;;;;;;;4.67;4.67;;;;;8.20;100.00;101045.69;5036733;28;45356;-78
2023/12/09 02:45:45;;;;;;;;;7.00;4.00;;;;;8.20;100.00;101043.03;5028506;28;45502;-78
2023/12/09 02:48:11;;;;;;;;;9.67;6.33;;;;;8.09;100.00;101017.06;5016682;28;47224;-78
2023/12/09 02:50:36;;;;;;;;;8.00;6.33;;;;;8.25;100.00;101044.59;5023228;28;45637;-77
2023/12/09 02:53:02;;;;;;;;;8.33;7.00;;;;;8.27;100.00;101045.44;5016382;28;45560;-78
2023/12/09 02:55:27;;;;;;;;;7.00;5.33;;;;;8.15;100.00;101027.38;5033150;28;45314;-77
2023/12/09 02:57:52;;;;;;;;;7.00;4.00;;;;;8.30;100.00;101042.72;5031015;28;45593;-78
2023/12/09 03:00:18;;;;;;;;;6.67;5.33;;;;;8.27;100.00;101026.13;5014779;28;50680;-79
2023/12/09 03:02:43;;;;;;;;;9.67;6.67;;;;;8.20;100.00;101007.03;5012413;28;45304;-78
2023/12/09 03:05:08;;;;;;;;;8.00;7.00;;;;;8.41;100.00;101028.31;5031668;28;55252;-78
2023/12/09 03:07:34;;;;;;;;;10.00;7.00;;;;;8.35;100.00;100998.63;5025337;28;45374;-77
2023/12/09 03:09:59;;;;;;;;;7.00;5.67;;;;;8.40;100.00;101003.75;5016801;28;45305;-79
2023/12/09 03:12:24;;;;;;;;;8.00;6.33;;;;;8.29;100.00;100977.75;5018330;28;45580;-78
2023/12/09 03:14:49;;;;;;;;;9.67;8.00;;;;;8.24;100.00;100958.59;5032505;28;45381;-78
2023/12/09 03:17:15;;;;;;;;;8.67;6.67;;;;;8.37;100.00;100982.75;5037455;28;50171;-78
2023/12/09 03:19:40;;;;;;;;;7.00;7.00;;;;;8.41;100.00;100978.25;5024752;28;45382;-78
2023/12/09 03:22:06;;;;;;;;;11.33;8.67;;;;;8.43;100.00;100969.38;5029254;28;45415;-78
2023/12/09 03:24:31;;;;;;;;;7.67;6.67;;;;;8.32;100.00;100942.53;5012256;28;45459;-79
2023/12/09 03:26:56;;;;;;;;;10.33;7.67;;;;;8.25;100.00;100936.56;5017385;28;62837;-78
2023/12/09 03:29:22;;;;;;;;;8.33;7.00;;;;;8.35;100.00;100945.03;5037802;28;45419;-78
2023/12/09 03:31:48;;;;;;;;;4.33;4.00;;;;;8.41;100.00;100938.72;5013746;28;45352;-78
2023/12/09 03:34:14;;;;;;;;;6.33;4.00;;;;;8.46;100.00;100947.31;5033203;28;45454;-78
2023/12/09 03:36:39;;;;;;;;;9.00;7.67;;;;;8.41;100.00;100944.81;5012777;28;45468;-79
2023/12/09 03:39:06;;;;;;;;;8.00;7.00;;;;;8.40;100.00;100948.41;5029561;28;45324;-78
2023/12/09 03:41:34;;;;;;;;;8.33;6.00;;;;;8.48;100.00;100962.13;5023845;28;45439;-78
2023/12/09 03:43:59;;;;;;;;;9.33;7.00;;;;;8.48;100.00;100948.97;5037234;28;45441;-79
2023/12/09 03:46:24;;;;;;;;;12.33;9.00;;;;;8.48;100.00;100933.16;5030791;28;45437;-79
2023/12/09 03:48:50;;;;;;;;;9.00;6.67;;;;;8.46;100.00;100916.53;5017368;28;45330;-78
2023/12/09 03:51:18;;;;;;;;;8.33;6.67;;;;;8.38;100.00;100892.22;5030603;28;45333;-79
2023/12/09 03:53:43;;;;;;;;;8.67;6.33;;;;;8.42;100.00;100899.13;5025663;28;46249;-78
2023/12/09 03:56:11;;;;;;;;;8.33;6.33;;;;;8.51;100.00;100914.59;5040567;28;46199;-78
2023/12/09 03:58:37;;;;;;;;;4.67;4.00;;;;;8.45;100.00;100906.03;5039775;28;45346;-77
2023/12/09 04:01:03;;;;;;;;;10.00;9.33;;;;;8.50;100.00;100904.97;5036450;28;46548;-78
2023/12/09 04:03:28;;;;;;;;;7.00;5.67;;;;;8.40;100.00;100884.28;5028634;28;45491;-76
2023/12/09 04:05:54;;;;;;;;;7.00;6.00;;;;;8.53;100.00;100899.59;5040443;28;45320;-77
2023/12/09 04:08:19;;;;;;;;;11.00;6.67;;;;;8.42;100.00;100866.63;5034982;28;45532;-79
2023/12/09 04:10:45;;;;;;;;;9.00;7.67;;;;;8.50;100.00;100886.53;5036660;28;45343;-78
2023/12/09 04:13:10;;;;;;;;;9.67;8.33;;;;;8.55;100.00;100889.84;5015769;28;45355;-78
2023/12/09 04:15:38;;;;;;;;;14.00;10.00;;;;;8.44;100.00;100860.41;5041848;28;45449;-77
2023/12/09 04:18:04;;;;;;;;;8.67;8.67;;;;;8.56;100.00;100882.78;5021207;28;45364;-78
2023/12/09 04:20:29;;;;;;;;;8.00;6.67;;;;;8.52;100.00;100871.50;5017525;28;45318;-77
2023/12/09 04:22:55;;;;;;;;;8.33;7.00;;;;;8.49;100.00;100861.06;5031760;28;45426;-77
2023/12/09 04:25:21;;;;;;;;;13.00;7.67;;;;;8.54;100.00;100868.81;5039842;28;69981;-78
2023/12/09 04:27:46;;;;;;;;;9.67;6.00;;;;;8.58;100.00;100878.31;5012421;28;45370;-77
2023/12/09 04:30:15;;;;;;;;;12.00;8.33;;;;;8.58;100.00;100884.44;5038206;28;45434;-77
2023/12/09 04:32:41;;;;;;;;;7.33;6.00;;;;;8.59;100.00;100875.63;5041121;28;45487;-77
2023/12/09 04:35:08;;;;;;;;;16.33;8.67;;;;;8.57;100.00;100871.34;5023138;28;45236;-78
2023/12/09 04:37:34;;;;;;;;;6.00;0.00;;;;;8.50;100.00;100854.03;5039407;28;45345;-77
2023/12/09 04:40:00;;;;;;;;;7.33;6.33;;;;;8.44;100.00;100839.31;5048997;28;45262;-77
2023/12/09 04:42:25;;;;;;;;;10.33;7.33;;;;;8.57;100.00;100843.22;5024548;28;45442;-78
2023/12/09 04:44:50;;;;;;;;;8.67;8.67;;;;;8.69;100.00;100855.91;5028492;28;64749;-78
2023/12/09 04:47:18;;;;;;;;;12.00;7.33;;;;;8.46;100.00;100816.38;5032224;28;59837;-78
2023/12/09 04:49:43;;;;;;;;;12.00;8.00;;;;;8.60;100.00;100822.00;5022204;28;45456;-78
2023/12/09 04:52:08;;;;;;;;;7.67;6.00;;;;;8.62;100.00;100821.91;5031816;28;45543;-78
2023/12/09 04:54:34;;;;;;;;;12.67;7.00;;;;;8.73;100.00;100833.78;5023796;28;45340;-79
2023/12/09 04:57:01;;;;;;;;;2.33;2.33;;;;;8.58;100.00;100808.00;5018271;28;45802;-78
2023/12/09 04:59:27;;;;;;;;;6.00;4.00;;;;;8.67;100.00;100826.09;5012471;28;45545;-78
2023/12/09 05:01:52;;;;;;;;;9.67;7.00;;;;;8.78;100.00;100829.19;5030465;28;45285;-77
2023/12/09 05:04:17;;;;;;;;;7.67;6.00;;;;;8.81;100.00;100829.06;5020515;28;45497;-77
2023/12/09 05:06:43;;;;;;;;;7.00;3.33;;;;;8.82;100.00;100822.88;5021296;28;61738;-78
2023/12/09 05:09:10;;;;;;;;;8.00;3.33;;;;;8.77;100.00;100803.72;5023302;28;45245;-78
2023/12/09 05:11:35;;;;;;;;;6.33;4.33;;;;;8.72;100.00;100781.97;5039181;28;45485;-78
2023/12/09 05:14:01;;;;;;;;;7.33;3.00;;;;;8.67;100.00;100773.34;5037061;28;45425;-78
2023/12/09 05:16:27;;;;;;;;;3.00;3.00;;;;;8.71;100.00;100774.09;5039025;28;45360;-78
2023/12/09 05:18:53;;;;;;;;;6.33;4.00;;;;;8.77;100.00;100773.84;5023054;28;45401;-78
2023/12/09 05:21:19;;;;;;;;;2.67;2.67;;;;;8.86;100.00;100787.56;5037526;28;45473;-78
2023/12/09 05:23:47;;;;;;;;;3.00;3.00;;;;;8.81;100.00;100768.41;5018996;28;46768;-79
2023/12/09 05:26:23;;;;;;;;;7.00;6.00;;;;;8.79;100.00;100764.97;5011407;28;45501;-78
2023/12/09 05:28:52;;;;;;;;;8.00;2.67;;;;;8.92;100.00;100757.44;5019161;28;45333;-76
2023/12/09 05:31:18;;;;;;;;;6.00;2.00;;;;;8.94;100.00;100768.75;5017720;28;45487;-78
2023/12/09 05:33:43;;;;;;;;;3.00;3.00;;;;;8.94;100.00;100746.78;5020870;28;47219;-78
2023/12/09 05:36:09;;;;;;;;;2.33;2.00;;;;;8.94;100.00;100737.09;5022668;28;45294;-79
2023/12/09 05:38:35;;;;;;;;;5.67;3.33;;;;;8.97;100.00;100744.03;5019531;28;45655;-79
2023/12/09 05:41:01;;;;;;;;;9.67;2.33;;;;;8.98;100.00;100735.19;5015036;28;45459;-77
2023/12/09 05:43:26;;;;;;;;;2.00;2.00;;;;;8.84;100.00;100704.97;5019723;28;45427;-78
2023/12/09 05:45:54;;;;;;;;;7.67;3.00;;;;;8.97;100.00;100720.28;5020989;28;45382;-79
2023/12/09 05:48:20;;;;;;;;;3.33;1.00;;;;;8.94;100.00;100707.22;5017666;28;45306;-79
2023/12/09 05:50:45;;;;;;;;;3.00;1.00;;;;;9.03;100.00;100718.25;5004866;28;45299;-79
2023/12/09 05:53:11;;;;;;;;;2.00;2.00;;;;;9.05;100.00;100711.16;5008837;28;47687;-79
2023/12/09 05:55:39;;;;;;;;;6.00;2.00;;;;;8.98;100.00;100699.13;5016813;28;45573;-79
2023/12/09 05:58:05;;;;;;;;;2.33;2.00;;;;;9.00;100.00;100686.72;5010520;28;45530;-79
2023/12/09 06:00:30;;;;;;;;;4.00;2.00;;;;;8.97;100.00;100680.72;5013902;28;45502;-78
2023/12/09 06:02:55;;;;;;;;;4.67;3.00;;;;;9.06;100.00;100685.63;5010324;28;45891;-78
2023/12/09 06:05:21;;;;;;;;;3.00;3.00;;;;;9.06;100.00;100686.50;5001249;28;45448;-78
2023/12/09 06:07:47;;;;;;;;;5.67;4.00;;;;;8.93;100.00;100668.63;5013892;28;45457;-78
2023/12/09 06:10:15;;;;;;;;;2.00;2.00;;;;;8.95;100.00;100657.06;5012654;28;45498;-78
2023/12/09 06:12:41;;;;;;;;;2.67;2.67;;;;;8.99;100.00;100663.06;5029650;28;46546;-78
2023/12/09 06:15:07;;;;;;;;;7.67;4.00;;;;;9.02;100.00;100671.72;4991457;28;45409;-76
2023/12/09 06:17:32;;;;;;;;;3.67;3.00;;;;;9.00;100.00;100649.81;5036865;28;45487;-76
2023/12/09 06:19:58;;;;;;;;;4.33;4.00;;;;;9.02;100.00;100645.34;5020448;28;45433;-77
2023/12/09 06:22:23;;;;;;;;;2.00;2.00;;;;;9.04;100.00;100642.63;5014496;28;47565;-78
2023/12/09 06:24:49;;;;;;;;;3.67;3.67;;;;;9.03;100.00;100643.56;5001044;28;45933;-77
2023/12/09 06:27:14;;;;;;;;;7.00;6.00;;;;;9.02;100.00;100631.28;5017052;28;45408;-78
2023/12/09 06:29:40;;;;;;;;;2.67;2.00;;;;;8.99;100.00;100627.00;4997769;28;45420;-78
2023/12/09 06:32:05;;;;;;;;;5.67;3.00;;;;;8.96;100.00;100615.72;5002653;28;48164;-77
2023/12/09 06:34:31;;;;;;;;;7.33;4.00;;;;;9.03;100.00;100619.81;5025644;28;45455;-78
2023/12/09 06:36:56;;;;;;;;;3.33;2.00;;;;;9.00;100.00;100614.69;5019180;28;45364;-77
2023/12/09 06:39:22;;;;;;;;;5.33;3.00;;;;;9.03;100.00;100606.63;5012093;28;45338;-77
2023/12/09 06:41:48;;;;;;;;;2.00;2.00;;;;;9.03;100.00;100598.72;5007278;28;47129;-77
2023/12/09 06:44:14;;;;;;;;;4.00;4.00;;;;;8.99;100.00;100584.81;5017298;28;45308;-77
2023/12/09 06:46:40;;;;;;;;;3.00;3.00;;;;;9.05;100.00;100589.81;5007122;28;45317;-77
2023/12/09 06:49:05;;;;;;;;;3.00;3.00;;;;;8.98;100.00;100571.66;5007330;28;45276;-77
2023/12/09 06:51:31;;;;;;;;;4.00;2.00;;;;;9.07;100.00;100581.81;5019759;28;45400;-76
2023/12/09 06:53:56;;;;;;;;;2.00;2.00;;;;;9.08;100.00;100583.53;5012035;28;45317;-77
2023/12/09 06:56:23;;;;;;;;;5.67;2.00;;;;;9.03;100.00;100572.34;5005364;28;45400;-78
2023/12/09 06:58:49;;;;;;;;;7.67;3.00;;;;;9.07;100.00;100577.38;5016473;28;45401;-78
2023/12/09 07:01:27;;;;;;;;;2.00;2.00;;;;;9.08;100.00;100562.44;5012107;28;46622;-78
2023/12/09 07:03:52;;;;;;;;;2.00;2.00;;;;;9.10;100.00;100560.56;5016000;28;45341;-78
2023/12/09 07:06:26;;;;;;;;;1.67;1.67;;;;;9.02;100.00;100542.47;5013005;28;45420;-77
2023/12/09 07:08:53;;;;;;;;;2.00;2.00;;;;;9.07;100.00;100551.00;5001569;28;45601;-77
2023/12/09 07:11:18;;;;;;;;;5.00;2.00;;;;;9.12;100.00;100540.25;5017716;28;47663;-78
2023/12/09 07:13:44;;;;;;;;;2.00;1.67;;;;;9.11;100.00;100531.47;5017762;28;45754;-78
2023/12/09 07:16:10;;;;;;;;;4.00;2.00;;;;;9.10;100.00;100526.25;5005710;28;45393;-78
2023/12/09 07:18:40;;;;;;;;;1.00;1.00;;;;;9.00;100.00;100488.06;5019424;28;45725;-78
2023/12/09 07:21:05;;;;;;;;;2.00;1.67;;;;;9.13;100.00;100521.72;5014011;28;45552;-78
2023/12/09 07:23:31;;;;;;;;;1.00;1.00;;;;;9.10;100.00;100508.66;5016891;28;45373;-78
2023/12/09 07:25:56;;;;;;;;;0.00;0.00;;;;;9.12;100.00;100512.09;5019744;28;45473;-78
2023/12/09 07:28:22;;;;;;;;;1.00;1.00;;;;;9.07;100.00;100498.25;5015726;28;45444;-78
2023/12/09 07:30:47;;;;;;;;;3.33;2.00;;;;;9.15;100.00;100504.03;5016233;28;47632;-78
2023/12/09 07:33:12;;;;;;;;;2.33;1.67;;;;;9.11;100.00;100507.75;5019613;28;45372;-78
2023/12/09 07:35:39;;;;;;;;;2.67;1.33;;;;;9.17;100.00;100522.44;5024320;28;45286;-79
2023/12/09 07:38:05;;;;;;;;;3.00;1.00;;;;;9.08;100.00;100499.97;5024294;28;45334;-78
2023/12/09 07:40:30;;;;;;;;;0.67;0.67;;;;;9.17;100.00;100501.31;5021936;28;45410;-78
2023/12/09 07:42:55;;;;;;;;;1.00;0.00;;;;;9.20;100.00;100482.72;5014618;28;45337;-79
2023/12/09 07:45:21;;;;;;;;;1.00;1.00;;;;;9.18;100.00;100479.28;5025658;28;45353;-78
2023/12/09 07:47:46;;;;;;;;;1.00;1.00;;;;;9.15;100.00;100451.28;5025553;28;45409;-77
2023/12/09 07:50:12;;;;;;;;;3.00;2.00;;;;;9.14;100.00;100452.19;5016051;28;46272;-78
2023/12/09 07:52:37;;;;;;;;;2.00;2.00;;;;;9.21;100.00;100458.03;5017764;28;45678;-78
2023/12/09 07:55:02;;;;;;;;;3.00;2.00;;;;;9.22;100.00;100452.72;5031727;28;45782;-78
2023/12/09 07:57:28;;;;;;;;;1.67;1.00;;;;;9.13;100.00;100412.72;5018544;28;45389;-79
2023/12/09 07:59:53;;;;;;;;;1.00;1.00;;;;;9.24;100.00;100421.81;5017878;28;45582;-79
2023/12/09 08:02:19;;;;;;;;;2.00;1.00;;;;;9.19;100.00;100392.16;5015455;28;45369;-79
2023/12/09 08:04:44;;;;;;;;;2.00;1.00;;;;;9.27;100.00;100399.69;5015367;28;45532;-79
2023/12/09 08:07:10;;;;;;;;;0.00;0.00;;;;;9.21;100.00;100389.44;5019216;28;45597;-79
2023/12/09 08:09:35;;;;;;;;;1.00;1.00;;;;;9.29;100.00;100382.84;5016158;28;46382;-79
2023/12/09 08:12:00;;;;;;;;;1.33;1.33;;;;;9.19;100.00;100347.31;5016034;28;45481;-78
2023/12/09 08:14:26;;;;;;;;;2.00;2.00;;;;;9.32;100.00;100337.88;5014477;28;45453;-79
2023/12/09 08:16:52;;;;;;;;;3.00;0.00;;;;;9.12;100.00;100308.97;5019045;28;45990;-78
2023/12/09 08:19:18;;;;;;;;;1.00;0.00;;;;;9.13;100.00;100312.47;5037019;28;46357;-79
2023/12/09 08:21:44;;;;;;;;;1.00;1.00;;;;;9.35;100.00;100340.34;5030791;28;45428;-78
2023/12/09 08:24:09;;;;;;;;;0.00;0.00;;;;;9.05;100.00;100288.22;5030049;28;45446;-78
2023/12/09 08:26:36;;;;;;;;;1.67;0.33;;;;;8.93;100.00;100226.41;5019566;28;45754;-79
2023/12/09 08:29:04;;;;;;;;;1.67;1.67;;;;;8.82;100.00;100192.66;5014349;28;45555;-79
2023/12/09 08:31:29;;;;;;;;;1.00;1.00;;;;;8.78;100.00;100183.19;5015492;28;45901;-79
2023/12/09 08:33:56;;;;;;;;;1.33;1.00;;;;;8.93;100.00;100188.63;5016922;28;45406;-78
2023/12/09 08:36:22;;;;;;;;;2.00;1.00;;;;;8.89;100.00;100175.59;5024490;28;45523;-79
2023/12/09 08:38:47;;;;;;;;;0.00;0.00;;;;;9.21;100.00;100223.22;5034257;28;48171;-78
2023/12/09 08:41:13;;;;;;;;;1.00;1.00;;;;;9.14;100.00;100222.69;5022091;28;45450;-79
2023/12/09 08:43:38;;;;;;;;;0.33;0.33;;;;;9.02;100.00;100173.19;5034748;28;45430;-79
2023/12/09 08:46:04;;;;;;;;;0.00;0.00;;;;;9.44;100.00;100222.91;5032590;28;45456;-79
2023/12/09 08:48:29;;;;;;;;;2.00;0.67;;;;;9.31;100.00;100206.00;5011896;28;46944;-79
2023/12/09 08:50:55;;;;;;;;;1.00;1.00;;;;;9.36;100.00;100188.97;5032659;28;45313;-78
2023/12/09 08:53:20;;;;;;;;;4.00;0.00;;;;;8.89;100.00;100077.19;5012885;28;45611;-78
2023/12/09 08:55:46;;;;;;;;;0.00;0.00;;;;;9.13;100.00;100122.53;5029796;28;45450;-76
2023/12/09 08:58:11;;;;;;;;;0.67;0.67;;;;;9.39;100.00;100136.03;5013937;28;48270;-76
2023/12/09 09:00:37;;;;;;;;;0.33;0.33;;;;;9.49;100.00;100143.50;5010908;28;45592;-75
2023/12/09 09:03:03;;;;;;;;;1.67;0.00;;;;;9.30;100.00;100107.50;5030496;28;45769;-77
2023/12/09 09:05:28;;;;;;;;;3.00;1.00;;;;;9.51;100.00;100125.78;5017053;28;45632;-75
2023/12/09 09:07:54;;;;;;;;;1.00;1.00;;;;;9.49;100.00;100112.66;5015367;28;46671;-76
2023/12/09 09:10:22;;;;;;;;;0.33;0.33;;;;;9.48;100.00;100158.47;5033697;28;45451;-75
2023/12/09 09:12:48;;;;;;;;;2.00;1.00;;;;;9.43;100.00;100134.09;5026947;28;45351;-76
2023/12/09 09:15:15;;;;;;;;;0.67;0.67;;;;;9.31;100.00;100101.31;5028384;28;45309;-76
2023/12/09 09:17:40;;;;;;;;;1.67;1.67;;;;;9.53;100.00;100134.44;5012668;28;45688;-75
2023/12/09 09:20:06;;;;;;;;;1.00;1.00;;;;;9.60;100.00;100138.47;5015039;28;45476;-76
2023/12/09 09:22:32;;;;;;;;;0.33;0.00;;;;;9.59;100.00;100126.19;5016413;28;45428;-75
2023/12/09 09:24:58;;;;;;;;;1.00;0.00;;;;;9.55;100.00;100104.41;5011561;28;45586;-75
2023/12/09 09:27:24;;;;;;;;;0.00;0.00;;;;;9.60;100.00;100118.22;5010864;28;48178;-75
2023/12/09 09:29:49;;;;;;;;;0.00;0.00;;;;;9.52;100.00;100117.75;5030122;28;46391;-78
2023/12/09 09:32:16;;;;;;;;;1.00;1.00;;;;;9.61;100.00;100135.75;5010819;28;45536;-75
2023/12/09 09:34:42;;;;;;;;;0.00;0.00;;;;;9.62;100.00;100120.78;5017192;28;45647;-76
2023/12/09 09:37:08;;;;;;;;;1.00;0.00;;;;;9.64;100.00;100105.69;5011371;28;45474;-75
2023/12/09 09:39:34;;;;;;;;;0.00;0.00;;;;;9.62;100.00;100089.94;5014687;28;45689;-75
2023/12/09 09:41:59;;;;;;;;;1.33;0.00;;;;;9.68;100.00;100094.91;5008466;28;45483;-75
2023/12/09 09:44:27;;;;;;;;;2.00;1.00;;;;;9.70;100.00;100100.94;5023878;28;45460;-78
2023/12/09 09:46:57;;;;;;;;;0.00;0.00;;;;;9.74;100.00;100093.69;5020349;28;46291;-77
2023/12/09 09:49:25;;;;;;;;;0.00;0.00;;;;;9.75;100.00;100076.94;5033194;28;45337;-78
2023/12/09 09:51:53;;;;;;;;;0.00;0.00;;;;;9.75;100.00;100069.84;5019908;28;45262;-78
2023/12/09 09:54:27;;;;;;;;;0.00;0.00;;;;;9.78;100.00;100076.75;5031915;28;45464;-79
2023/12/09 09:56:58;;;;;;;;;0.00;0.00;;;;;9.82;100.00;100075.63;5022728;28;47076;-78
2023/12/09 09:59:24;;;;;;;;;0.00;0.00;;;;;9.64;100.00;100030.00;5032427;28;45250;-77
2023/12/09 10:01:49;;;;;;;;;0.00;0.00;;;;;9.82;100.00;100049.22;5021626;28;45370;-75
2023/12/09 10:04:15;;;;;;;;;0.00;0.00;;;;;9.83;100.00;100030.66;5021313;28;45806;-76
2023/12/09 10:06:41;;;;;;;;;0.33;0.00;;;;;9.87;100.00;100052.47;5018998;28;46255;-75
2023/12/09 10:09:07;;;;;;;;;0.00;0.00;;;;;9.84;100.00;100036.81;5012388;28;45692;-75
2023/12/09 10:11:32;;;;;;;;;0.00;0.00;;;;;9.83;100.00;100033.31;5016947;28;45987;-78
2023/12/09 10:13:58;;;;;;;;;0.00;0.00;;;;;9.93;100.00;100036.28;5026181;28;45358;-76
2023/12/09 10:16:23;;;;;;;;;0.00;0.00;;;;;9.70;100.00;100002.38;5005348;28;46997;-76
2023/12/09 10:18:53;;;;;;;;;0.00;0.00;;;;;9.91;100.00;100012.56;4999887;28;45428;-75
2023/12/09 10:21:19;;;;;;;;;0.00;0.00;;;;;9.53;100.00;99949.69;5013279;28;45439;-78
2023/12/09 10:23:45;;;;;;;;;0.00;0.00;;;;;9.97;100.00;100010.53;5019889;28;45669;-78
2023/12/09 10:26:12;;;;;;;;;0.33;0.00;;;;;9.99;100.00;100012.16;5009075;28;47352;-77
2023/12/09 10:28:38;;;;;;;;;1.00;0.00;;;;;9.83;100.00;99967.28;5007894;28;45553;-79
2023/12/09 10:31:03;;;;;;;;;0.00;0.00;;;;;9.86;100.00;99945.97;5033429;28;45323;-75
2023/12/09 10:33:30;;;;;;;;;0.00;0.00;;;;;9.79;100.00;99949.91;5042315;28;45687;-75
2023/12/09 10:35:57;;;;;;;;;0.00;0.00;;;;;9.98;100.00;99980.56;5038451;28;45464;-75
2023/12/09 10:38:22;;;;;;;;;0.00;0.00;;;;;10.10;100.00;99995.69;5018832;28;45428;-75
2023/12/09 10:40:49;;;;;;;;;0.00;0.00;;;;;10.11;100.00;99981.53;5015071;28;45320;-75
2023/12/09 10:43:15;;;;;;;;;0.00;0.00;;;;;10.15;100.00;99983.06;5006229;28;45576;-74
2023/12/09 10:45:41;;;;;;;;;0.67;0.00;;;;;10.13;100.00;99942.66;5018445;28;45325;-75
2023/12/09 10:48:06;;;;;;;;;0.00;0.00;;;;;10.17;100.00;99953.00;5011366;28;45270;-75
2023/12/09 10:50:33;;;;;;;;;1.00;0.00;;;;;10.21;100.00;99983.56;5030453;28;45541;-75
2023/12/09 10:52:58;;;;;;;;;0.00;0.00;;;;;10.24;100.00;99964.06;5019723;28;45342;-75
2023/12/09 10:55:24;;;;;;;;;0.00;0.00;;;;;10.29;100.00;99946.13;5018976;28;47657;-75
2023/12/09 10:57:50;;;;;;;;;0.00;0.00;;;;;10.30;100.00;99953.13;5020595;28;45424;-75
2023/12/09 11:00:18;;;;;;;;;0.00;0.00;;;;;10.35;100.00;99943.97;5010815;28;45420;-75
2023/12/09 11:02:46;;;;;;;;;1.00;0.00;;;;;10.37;100.00;99938.59;5009711;28;45484;-75
2023/12/09 11:05:11;;;;;;;;;0.00;0.00;;;;;10.33;100.00;99921.22;5013313;28;47425;-75
2023/12/09 11:07:38;;;;;;;;;0.00;0.00;;;;;10.33;100.00;99897.44;5017702;28;45327;-75
2023/12/09 11:10:08;;;;;;;;;0.00;0.00;;;;;10.42;100.00;99876.59;5016890;28;45418;-75
2023/12/09 11:12:35;;;;;;;;;0.00;0.00;;;;;10.47;100.00;99875.47;5008959;28;45320;-75
2023/12/09 11:15:28;;;;;;;;;0.00;0.00;;;;;10.54;100.00;99888.19;5012083;28;47274;-74
2023/12/09 11:17:53;;;;;;;;;0.00;0.00;;;;;10.58;100.00;99881.78;5029987;28;45305;-74
2023/12/09 11:20:19;;;;;;;;;0.00;0.00;;;;;10.62;100.00;99838.34;5020054;28;45302;-74